sensor_id;sensor_type;location;lat;lon;timestamp;temperature;humidity
827;DHT22;395;48.132;11.608;2023-03-15T00:00:12;7.70;1.00
827;DHT22;395;48.132;11.608;2023-03-15T00:02:38;7.80;1.00
827;DHT22;395;48.132;11.608;2023-03-15T00:05:05;7.80;1.00
827;DHT22;395;48.132;11.608;2023-03-15T00:07:31;7.80;1.00
827;DHT22;395;48.132;11.608;2023-03-15T00:09:56;7.80;1.00
827;DHT22;395;48.132;11.608;2023-03-15T00:12:22;7.80;1.00
827;DHT22;395;48.132;11.608;2023-03-15T00:14:49;7.80;1.00
827;DHT22;395;48.132;11.608;2023-03-15T00:17:15;7.80;1.00
827;DHT22;395;48.132;11.608;2023-03-15T00:19:41;7.80;1.00
827;DHT22;395;48.132;11.608;2023-03-15T00:22:07;7.90;1.00
827;DHT22;395;48.132;11.608;2023-03-15T00:24:33;7.90;1.00
827;DHT22;395;48.132;11.608;2023-03-15T00:26:58;8.00;1.00
827;DHT22;395;48.132;11.608;2023-03-15T00:29:26;7.90;1.00
827;DHT22;395;48.132;11.608;2023-03-15T00:31:52;7.90;1.00
827;DHT22;395;48.132;11.608;2023-03-15T00:34:17;7.90;1.00
827;DHT22;395;48.132;11.608;2023-03-15T00:36:48;7.90;1.00
827;DHT22;395;48.132;11.608;2023-03-15T00:39:14;7.90;1.00
827;DHT22;395;48.132;11.608;2023-03-15T00:41:40;7.90;1.00
827;DHT22;395;48.132;11.608;2023-03-15T00:44:06;7.80;1.00
827;DHT22;395;48.132;11.608;2023-03-15T00:46:31;7.80;1.00
827;DHT22;395;48.132;11.608;2023-03-15T00:48:57;7.80;1.00
827;DHT22;395;48.132;11.608;2023-03-15T00:51:23;7.60;1.00
827;DHT22;395;48.132;11.608;2023-03-15T00:53:50;7.60;1.20
827;DHT22;395;48.132;11.608;2023-03-15T00:56:21;7.50;1.00
827;DHT22;395;48.132;11.608;2023-03-15T00:58:47;7.50;1.00
827;DHT22;395;48.132;11.608;2023-03-15T01:01:16;7.30;1.00
827;DHT22;395;48.132;11.608;2023-03-15T01:03:42;6.80;1.00
827;DHT22;395;48.132;11.608;2023-03-15T01:06:11;6.40;1.90
827;DHT22;395;48.132;11.608;2023-03-15T01:08:37;6.20;3.10
827;DHT22;395;48.132;11.608;2023-03-15T01:11:05;6.00;8.00
827;DHT22;395;48.132;11.608;2023-03-15T01:13:31;5.60;10.00
827;DHT22;395;48.132;11.608;2023-03-15T01:15:57;5.30;13.90
827;DHT22;395;48.132;11.608;2023-03-15T01:18:23;5.40;13.20
827;DHT22;395;48.132;11.608;2023-03-15T01:20:49;5.40;11.50
827;DHT22;395;48.132;11.608;2023-03-15T01:23:15;5.30;10.50
827;DHT22;395;48.132;11.608;2023-03-15T01:25:41;5.30;11.50
827;DHT22;395;48.132;11.608;2023-03-15T01:28:06;5.30;13.60
827;DHT22;395;48.132;11.608;2023-03-15T01:30:32;5.20;11.30
827;DHT22;395;48.132;11.608;2023-03-15T01:32:58;5.20;11.00
827;DHT22;395;48.132;11.608;2023-03-15T01:35:24;5.10;11.60
827;DHT22;395;48.132;11.608;2023-03-15T01:37:50;5.10;12.90
827;DHT22;395;48.132;11.608;2023-03-15T01:40:17;5.20;12.80
827;DHT22;395;48.132;11.608;2023-03-15T01:48:44;5.30;11.70
827;DHT22;395;48.132;11.608;2023-03-15T01:51:25;5.30;11.10
827;DHT22;395;48.132;11.608;2023-03-15T01:56:24;5.30;12.30
827;DHT22;395;48.132;11.608;2023-03-15T01:58:51;5.40;12.40
827;DHT22;395;48.132;11.608;2023-03-15T02:01:18;5.40;11.70
827;DHT22;395;48.132;11.608;2023-03-15T02:03:47;5.40;10.80
827;DHT22;395;48.132;11.608;2023-03-15T02:06:17;5.40;10.90
827;DHT22;395;48.132;11.608;2023-03-15T02:08:49;5.40;10.10
827;DHT22;395;48.132;11.608;2023-03-15T02:11:18;5.40;9.60
827;DHT22;395;48.132;11.608;2023-03-15T02:13:47;5.40;10.30
827;DHT22;395;48.132;11.608;2023-03-15T02:16:13;5.30;9.70
827;DHT22;395;48.132;11.608;2023-03-15T02:18:39;5.30;10.60
827;DHT22;395;48.132;11.608;2023-03-15T02:21:27;5.30;10.10
827;DHT22;395;48.132;11.608;2023-03-15T02:24:04;5.30;10.10
827;DHT22;395;48.132;11.608;2023-03-15T02:26:41;5.40;10.30
827;DHT22;395;48.132;11.608;2023-03-15T02:29:09;5.40;10.00
827;DHT22;395;48.132;11.608;2023-03-15T02:31:35;5.40;9.60
827;DHT22;395;48.132;11.608;2023-03-15T02:34:04;5.30;8.70
827;DHT22;395;48.132;11.608;2023-03-15T02:36:31;5.20;9.10
827;DHT22;395;48.132;11.608;2023-03-15T02:38:58;5.20;9.60
827;DHT22;395;48.132;11.608;2023-03-15T02:41:45;5.30;10.20
827;DHT22;395;48.132;11.608;2023-03-15T02:44:20;5.30;8.70
827;DHT22;395;48.132;11.608;2023-03-15T02:46:49;5.30;9.90
827;DHT22;395;48.132;11.608;2023-03-15T02:49:16;5.20;9.20
827;DHT22;395;48.132;11.608;2023-03-15T02:51:42;5.30;10.40
827;DHT22;395;48.132;11.608;2023-03-15T02:54:08;5.20;10.10
827;DHT22;395;48.132;11.608;2023-03-15T02:56:33;5.10;9.60
827;DHT22;395;48.132;11.608;2023-03-15T02:58:59;5.00;10.90
827;DHT22;395;48.132;11.608;2023-03-15T03:01:25;5.00;12.10
827;DHT22;395;48.132;11.608;2023-03-15T03:03:51;5.00;9.90
827;DHT22;395;48.132;11.608;2023-03-15T03:06:17;4.80;9.40
827;DHT22;395;48.132;11.608;2023-03-15T03:08:43;4.60;12.20
827;DHT22;395;48.132;11.608;2023-03-15T03:11:12;4.50;12.80
827;DHT22;395;48.132;11.608;2023-03-15T03:13:39;4.40;12.30
827;DHT22;395;48.132;11.608;2023-03-15T03:16:05;4.50;13.20
827;DHT22;395;48.132;11.608;2023-03-15T03:18:31;4.50;12.80
827;DHT22;395;48.132;11.608;2023-03-15T03:21:01;4.50;11.00
827;DHT22;395;48.132;11.608;2023-03-15T03:23:29;4.40;11.70
827;DHT22;395;48.132;11.608;2023-03-15T03:25:56;4.40;12.10
827;DHT22;395;48.132;11.608;2023-03-15T03:28:23;4.30;15.30
827;DHT22;395;48.132;11.608;2023-03-15T03:30:50;4.20;17.80
827;DHT22;395;48.132;11.608;2023-03-15T03:33:16;4.30;18.80
827;DHT22;395;48.132;11.608;2023-03-15T03:35:42;4.30;19.80
827;DHT22;395;48.132;11.608;2023-03-15T03:38:09;4.30;19.30
827;DHT22;395;48.132;11.608;2023-03-15T03:40:35;4.10;20.90
827;DHT22;395;48.132;11.608;2023-03-15T03:43:01;4.20;20.90
827;DHT22;395;48.132;11.608;2023-03-15T03:45:27;4.20;21.50
827;DHT22;395;48.132;11.608;2023-03-15T03:47:52;4.10;22.10
827;DHT22;395;48.132;11.608;2023-03-15T03:50:18;4.20;20.80
827;DHT22;395;48.132;11.608;2023-03-15T03:52:44;4.40;22.00
827;DHT22;395;48.132;11.608;2023-03-15T03:55:10;4.40;18.90
827;DHT22;395;48.132;11.608;2023-03-15T03:57:40;4.40;17.40
827;DHT22;395;48.132;11.608;2023-03-15T04:00:07;4.40;15.30
827;DHT22;395;48.132;11.608;2023-03-15T04:02:34;4.50;14.90
827;DHT22;395;48.132;11.608;2023-03-15T04:05:00;4.30;11.70
827;DHT22;395;48.132;11.608;2023-03-15T04:07:26;4.30;11.30
827;DHT22;395;48.132;11.608;2023-03-15T04:09:51;4.20;11.60
827;DHT22;395;48.132;11.608;2023-03-15T04:12:17;4.20;11.60
827;DHT22;395;48.132;11.608;2023-03-15T04:14:43;4.00;13.70
827;DHT22;395;48.132;11.608;2023-03-15T04:17:09;3.90;15.00
827;DHT22;395;48.132;11.608;2023-03-15T04:19:34;3.80;18.00
827;DHT22;395;48.132;11.608;2023-03-15T04:22:00;3.70;17.10
827;DHT22;395;48.132;11.608;2023-03-15T04:24:32;3.60;17.20
827;DHT22;395;48.132;11.608;2023-03-15T04:26:59;3.60;15.50
827;DHT22;395;48.132;11.608;2023-03-15T04:29:25;3.60;15.50
827;DHT22;395;48.132;11.608;2023-03-15T04:31:50;3.70;14.90
827;DHT22;395;48.132;11.608;2023-03-15T04:34:16;3.70;14.80
827;DHT22;395;48.132;11.608;2023-03-15T04:36:42;3.70;14.50
827;DHT22;395;48.132;11.608;2023-03-15T04:39:08;3.70;14.50
827;DHT22;395;48.132;11.608;2023-03-15T04:41:34;3.60;13.10
827;DHT22;395;48.132;11.608;2023-03-15T04:44:01;3.80;11.40
827;DHT22;395;48.132;11.608;2023-03-15T04:46:29;3.80;10.90
827;DHT22;395;48.132;11.608;2023-03-15T04:48:55;3.80;10.60
827;DHT22;395;48.132;11.608;2023-03-15T04:51:20;3.90;11.00
827;DHT22;395;48.132;11.608;2023-03-15T04:53:46;4.10;10.70
827;DHT22;395;48.132;11.608;2023-03-15T04:56:12;4.10;8.20
827;DHT22;395;48.132;11.608;2023-03-15T04:58:37;4.00;7.80
827;DHT22;395;48.132;11.608;2023-03-15T05:01:03;4.00;7.90
827;DHT22;395;48.132;11.608;2023-03-15T05:03:29;4.00;8.10
827;DHT22;395;48.132;11.608;2023-03-15T05:05:54;4.00;7.80
827;DHT22;395;48.132;11.608;2023-03-15T05:08:20;3.80;8.30
827;DHT22;395;48.132;11.608;2023-03-15T05:10:45;3.80;10.90
827;DHT22;395;48.132;11.608;2023-03-15T05:13:11;3.70;11.30
827;DHT22;395;48.132;11.608;2023-03-15T05:15:37;3.70;12.10
827;DHT22;395;48.132;11.608;2023-03-15T05:18:02;3.60;14.50
827;DHT22;395;48.132;11.608;2023-03-15T05:20:28;3.60;13.80
827;DHT22;395;48.132;11.608;2023-03-15T05:22:54;3.50;13.90
827;DHT22;395;48.132;11.608;2023-03-15T05:25:19;3.60;15.90
827;DHT22;395;48.132;11.608;2023-03-15T05:27:45;3.50;14.80
827;DHT22;395;48.132;11.608;2023-03-15T05:30:12;3.60;14.80
827;DHT22;395;48.132;11.608;2023-03-15T05:32:38;3.70;14.50
827;DHT22;395;48.132;11.608;2023-03-15T05:35:09;3.70;12.00
827;DHT22;395;48.132;11.608;2023-03-15T05:37:35;3.70;11.30
827;DHT22;395;48.132;11.608;2023-03-15T05:40:01;3.70;11.30
827;DHT22;395;48.132;11.608;2023-03-15T05:42:27;3.70;11.00
827;DHT22;395;48.132;11.608;2023-03-15T05:44:54;3.60;11.00
827;DHT22;395;48.132;11.608;2023-03-15T05:47:20;3.50;11.50
827;DHT22;395;48.132;11.608;2023-03-15T05:49:46;3.50;10.90
827;DHT22;395;48.132;11.608;2023-03-15T05:52:11;3.60;10.40
827;DHT22;395;48.132;11.608;2023-03-15T05:54:37;3.60;10.50
827;DHT22;395;48.132;11.608;2023-03-15T05:57:03;3.70;10.60
827;DHT22;395;48.132;11.608;2023-03-15T05:59:29;3.80;9.80
827;DHT22;395;48.132;11.608;2023-03-15T06:01:55;3.80;7.70
827;DHT22;395;48.132;11.608;2023-03-15T06:04:21;3.80;7.20
827;DHT22;395;48.132;11.608;2023-03-15T06:06:47;3.90;7.80
827;DHT22;395;48.132;11.608;2023-03-15T06:09:12;3.80;6.50
827;DHT22;395;48.132;11.608;2023-03-15T06:11:38;3.80;6.30
827;DHT22;395;48.132;11.608;2023-03-15T06:14:04;3.80;6.60
827;DHT22;395;48.132;11.608;2023-03-15T06:16:30;3.80;6.30
827;DHT22;395;48.132;11.608;2023-03-15T06:18:55;3.80;6.50
827;DHT22;395;48.132;11.608;2023-03-15T06:21:21;3.90;7.00
827;DHT22;395;48.132;11.608;2023-03-15T06:23:46;4.00;6.40
827;DHT22;395;48.132;11.608;2023-03-15T06:26:12;4.00;5.60
827;DHT22;395;48.132;11.608;2023-03-15T06:28:39;4.10;6.00
827;DHT22;395;48.132;11.608;2023-03-15T06:31:09;4.00;4.90
827;DHT22;395;48.132;11.608;2023-03-15T06:33:36;4.00;4.90
827;DHT22;395;48.132;11.608;2023-03-15T06:36:02;4.00;5.20
827;DHT22;395;48.132;11.608;2023-03-15T06:38:28;4.10;5.90
827;DHT22;395;48.132;11.608;2023-03-15T06:40:58;4.20;5.60
827;DHT22;395;48.132;11.608;2023-03-15T06:43:29;4.20;4.50
827;DHT22;395;48.132;11.608;2023-03-15T06:45:56;4.20;4.50
827;DHT22;395;48.132;11.608;2023-03-15T06:48:24;4.20;4.90
827;DHT22;395;48.132;11.608;2023-03-15T06:50:50;4.20;4.30
827;DHT22;395;48.132;11.608;2023-03-15T06:53:16;4.20;4.60
827;DHT22;395;48.132;11.608;2023-03-15T06:55:42;4.20;4.20
827;DHT22;395;48.132;11.608;2023-03-15T06:58:08;4.20;4.30
827;DHT22;395;48.132;11.608;2023-03-15T07:00:34;4.10;2.40
827;DHT22;395;48.132;11.608;2023-03-15T07:02:59;4.10;3.30
827;DHT22;395;48.132;11.608;2023-03-15T07:05:25;4.20;3.60
827;DHT22;395;48.132;11.608;2023-03-15T07:07:51;4.20;4.20
827;DHT22;395;48.132;11.608;2023-03-15T07:10:16;4.20;3.60
827;DHT22;395;48.132;11.608;2023-03-15T07:12:42;4.20;2.40
827;DHT22;395;48.132;11.608;2023-03-15T07:15:08;4.20;2.00
827;DHT22;395;48.132;11.608;2023-03-15T07:17:34;4.30;2.40
827;DHT22;395;48.132;11.608;2023-03-15T07:19:59;4.30;2.90
827;DHT22;395;48.132;11.608;2023-03-15T07:22:25;4.30;2.10
827;DHT22;395;48.132;11.608;2023-03-15T07:24:51;4.40;2.10
827;DHT22;395;48.132;11.608;2023-03-15T07:27:17;4.30;1.00
827;DHT22;395;48.132;11.608;2023-03-15T07:29:43;4.30;1.00
827;DHT22;395;48.132;11.608;2023-03-15T07:32:08;4.30;1.00
827;DHT22;395;48.132;11.608;2023-03-15T07:34:34;4.10;1.00
827;DHT22;395;48.132;11.608;2023-03-15T07:37:00;4.10;1.00
827;DHT22;395;48.132;11.608;2023-03-15T07:39:25;4.20;1.00
827;DHT22;395;48.132;11.608;2023-03-15T07:41:52;4.20;1.00
827;DHT22;395;48.132;11.608;2023-03-15T07:44:17;4.30;1.00
827;DHT22;395;48.132;11.608;2023-03-15T07:46:43;4.30;1.00
827;DHT22;395;48.132;11.608;2023-03-15T07:49:09;4.40;1.00
827;DHT22;395;48.132;11.608;2023-03-15T07:51:35;4.40;1.00
827;DHT22;395;48.132;11.608;2023-03-15T07:54:01;4.40;1.00
827;DHT22;395;48.132;11.608;2023-03-15T07:56:26;4.50;1.00
827;DHT22;395;48.132;11.608;2023-03-15T07:58:52;4.50;1.00
827;DHT22;395;48.132;11.608;2023-03-15T08:01:18;4.50;1.00
827;DHT22;395;48.132;11.608;2023-03-15T08:03:43;4.40;1.00
827;DHT22;395;48.132;11.608;2023-03-15T08:06:09;4.50;1.00
827;DHT22;395;48.132;11.608;2023-03-15T08:08:35;4.50;1.00
827;DHT22;395;48.132;11.608;2023-03-15T08:11:00;4.60;1.00
827;DHT22;395;48.132;11.608;2023-03-15T08:13:26;4.70;1.00
827;DHT22;395;48.132;11.608;2023-03-15T08:15:51;4.70;1.00
827;DHT22;395;48.132;11.608;2023-03-15T08:18:17;4.70;1.00
827;DHT22;395;48.132;11.608;2023-03-15T08:20:43;4.70;1.00
827;DHT22;395;48.132;11.608;2023-03-15T08:23:08;4.70;1.00
827;DHT22;395;48.132;11.608;2023-03-15T08:25:35;4.60;1.00
827;DHT22;395;48.132;11.608;2023-03-15T08:28:05;4.60;1.00
827;DHT22;395;48.132;11.608;2023-03-15T08:30:30;4.50;1.00
827;DHT22;395;48.132;11.608;2023-03-15T08:32:56;4.50;1.00
827;DHT22;395;48.132;11.608;2023-03-15T08:35:22;4.40;1.00
827;DHT22;395;48.132;11.608;2023-03-15T08:37:48;4.50;1.00
827;DHT22;395;48.132;11.608;2023-03-15T08:40:18;4.60;1.00
827;DHT22;395;48.132;11.608;2023-03-15T08:42:53;4.60;1.00
827;DHT22;395;48.132;11.608;2023-03-15T08:45:19;4.60;1.00
827;DHT22;395;48.132;11.608;2023-03-15T08:47:45;4.70;1.00
827;DHT22;395;48.132;11.608;2023-03-15T08:50:12;4.70;1.00
827;DHT22;395;48.132;11.608;2023-03-15T08:52:38;4.60;1.00
827;DHT22;395;48.132;11.608;2023-03-15T08:55:05;4.70;1.00
827;DHT22;395;48.132;11.608;2023-03-15T08:57:31;4.40;1.00
827;DHT22;395;48.132;11.608;2023-03-15T08:59:58;4.70;1.00
827;DHT22;395;48.132;11.608;2023-03-15T09:02:24;4.80;1.00
827;DHT22;395;48.132;11.608;2023-03-15T09:04:50;4.90;1.00
827;DHT22;395;48.132;11.608;2023-03-15T09:07:16;4.80;1.00
827;DHT22;395;48.132;11.608;2023-03-15T09:09:41;4.90;1.00
827;DHT22;395;48.132;11.608;2023-03-15T09:12:15;5.00;1.00
827;DHT22;395;48.132;11.608;2023-03-15T09:14:41;5.00;1.00
827;DHT22;395;48.132;11.608;2023-03-15T09:17:08;4.90;1.00
827;DHT22;395;48.132;11.608;2023-03-15T09:19:33;5.00;1.00
827;DHT22;395;48.132;11.608;2023-03-15T09:21:59;5.00;1.00
827;DHT22;395;48.132;11.608;2023-03-15T09:24:25;4.90;1.00
827;DHT22;395;48.132;11.608;2023-03-15T09:26:50;4.90;1.00
827;DHT22;395;48.132;11.608;2023-03-15T09:29:16;5.00;1.00
827;DHT22;395;48.132;11.608;2023-03-15T09:31:42;5.00;1.00
827;DHT22;395;48.132;11.608;2023-03-15T09:34:07;5.10;1.00
827;DHT22;395;48.132;11.608;2023-03-15T09:36:33;5.20;1.00
827;DHT22;395;48.132;11.608;2023-03-15T09:38:59;5.20;1.00
827;DHT22;395;48.132;11.608;2023-03-15T09:41:31;5.20;1.00
827;DHT22;395;48.132;11.608;2023-03-15T09:44:22;5.30;1.00
827;DHT22;395;48.132;11.608;2023-03-15T09:47:08;5.40;1.00
827;DHT22;395;48.132;11.608;2023-03-15T09:49:44;5.50;1.00
827;DHT22;395;48.132;11.608;2023-03-15T09:57:42;5.60;1.00
827;DHT22;395;48.132;11.608;2023-03-15T10:00:13;5.70;1.00
827;DHT22;395;48.132;11.608;2023-03-15T10:02:57;5.60;1.00
827;DHT22;395;48.132;11.608;2023-03-15T10:05:53;5.70;1.00
827;DHT22;395;48.132;11.608;2023-03-15T10:08:20;5.70;1.00
827;DHT22;395;48.132;11.608;2023-03-15T10:10:53;5.70;1.00
827;DHT22;395;48.132;11.608;2023-03-15T10:18:51;5.60;1.00
827;DHT22;395;48.132;11.608;2023-03-15T10:22:01;5.60;1.00
827;DHT22;395;48.132;11.608;2023-03-15T10:29:53;5.50;1.00
827;DHT22;395;48.132;11.608;2023-03-15T10:32:23;5.60;1.00
827;DHT22;395;48.132;11.608;2023-03-15T10:34:55;5.60;1.00
827;DHT22;395;48.132;11.608;2023-03-15T10:37:24;5.70;1.00
827;DHT22;395;48.132;11.608;2023-03-15T10:39:54;5.70;1.00
827;DHT22;395;48.132;11.608;2023-03-15T10:44:51;5.70;1.00
827;DHT22;395;48.132;11.608;2023-03-15T10:47:20;5.60;1.00
827;DHT22;395;48.132;11.608;2023-03-15T10:49:46;5.80;1.00
827;DHT22;395;48.132;11.608;2023-03-15T10:54:53;5.90;1.00
827;DHT22;395;48.132;11.608;2023-03-15T10:57:27;6.00;1.00
827;DHT22;395;48.132;11.608;2023-03-15T11:00:27;6.00;1.00
827;DHT22;395;48.132;11.608;2023-03-15T11:03:21;6.00;1.00
827;DHT22;395;48.132;11.608;2023-03-15T11:05:51;6.10;1.00
827;DHT22;395;48.132;11.608;2023-03-15T11:08:23;6.10;1.00
827;DHT22;395;48.132;11.608;2023-03-15T11:10:58;6.10;1.00
827;DHT22;395;48.132;11.608;2023-03-15T11:13:29;6.20;1.00
827;DHT22;395;48.132;11.608;2023-03-15T11:16:02;6.10;1.00
827;DHT22;395;48.132;11.608;2023-03-15T11:18:35;5.90;1.00
827;DHT22;395;48.132;11.608;2023-03-15T11:21:06;6.20;1.00
827;DHT22;395;48.132;11.608;2023-03-15T11:23:37;6.40;1.00
827;DHT22;395;48.132;11.608;2023-03-15T11:26:04;6.40;1.00
827;DHT22;395;48.132;11.608;2023-03-15T11:28:32;6.50;1.00
827;DHT22;395;48.132;11.608;2023-03-15T11:31:00;6.50;1.00
827;DHT22;395;48.132;11.608;2023-03-15T11:35:59;6.60;1.00
827;DHT22;395;48.132;11.608;2023-03-15T11:38:32;6.60;1.00
827;DHT22;395;48.132;11.608;2023-03-15T11:41:04;6.50;1.00
827;DHT22;395;48.132;11.608;2023-03-15T11:46:13;6.50;1.00
827;DHT22;395;48.132;11.608;2023-03-15T11:48:50;6.60;1.00
827;DHT22;395;48.132;11.608;2023-03-15T11:51:16;6.60;1.00
827;DHT22;395;48.132;11.608;2023-03-15T11:53:47;6.50;1.00
827;DHT22;395;48.132;11.608;2023-03-15T12:07:55;6.30;1.00
827;DHT22;395;48.132;11.608;2023-03-15T12:17:49;6.40;1.00
827;DHT22;395;48.132;11.608;2023-03-15T12:22:52;6.20;1.00
827;DHT22;395;48.132;11.608;2023-03-15T12:25:31;6.30;1.00
827;DHT22;395;48.132;11.608;2023-03-15T12:28:07;6.40;1.00
827;DHT22;395;48.132;11.608;2023-03-15T12:30:41;6.40;1.00
827;DHT22;395;48.132;11.608;2023-03-15T12:33:15;6.30;1.00
827;DHT22;395;48.132;11.608;2023-03-15T12:35:43;6.30;1.00
827;DHT22;395;48.132;11.608;2023-03-15T12:38:15;6.30;1.00
827;DHT22;395;48.132;11.608;2023-03-15T12:40:56;6.40;1.00
827;DHT22;395;48.132;11.608;2023-03-15T12:43:43;6.50;1.00
827;DHT22;395;48.132;11.608;2023-03-15T12:52:03;6.50;1.00
827;DHT22;395;48.132;11.608;2023-03-15T12:54:54;6.50;1.00
827;DHT22;395;48.132;11.608;2023-03-15T12:57:26;6.40;1.00
827;DHT22;395;48.132;11.608;2023-03-15T13:00:04;6.30;1.00
827;DHT22;395;48.132;11.608;2023-03-15T13:03:07;6.40;1.00
827;DHT22;395;48.132;11.608;2023-03-15T13:05:58;6.50;1.00
827;DHT22;395;48.132;11.608;2023-03-15T13:11:28;6.60;1.00
827;DHT22;395;48.132;11.608;2023-03-15T13:16:43;6.60;1.00
827;DHT22;395;48.132;11.608;2023-03-15T13:27:08;7.00;1.00
827;DHT22;395;48.132;11.608;2023-03-15T13:29:36;7.00;1.00
827;DHT22;395;48.132;11.608;2023-03-15T13:32:07;6.90;1.00
827;DHT22;395;48.132;11.608;2023-03-15T13:34:36;6.90;1.00
827;DHT22;395;48.132;11.608;2023-03-15T13:37:01;6.80;1.00
827;DHT22;395;48.132;11.608;2023-03-15T13:39:32;7.00;1.00
827;DHT22;395;48.132;11.608;2023-03-15T13:42:03;7.10;1.00
827;DHT22;395;48.132;11.608;2023-03-15T13:44:30;7.20;1.00
827;DHT22;395;48.132;11.608;2023-03-15T13:46:57;7.20;1.00
827;DHT22;395;48.132;11.608;2023-03-15T13:49:23;7.30;1.00
827;DHT22;395;48.132;11.608;2023-03-15T13:51:51;7.30;1.00
827;DHT22;395;48.132;11.608;2023-03-15T13:54:23;7.30;1.00
827;DHT22;395;48.132;11.608;2023-03-15T13:57:10;7.20;1.00
827;DHT22;395;48.132;11.608;2023-03-15T14:02:16;7.30;1.00
827;DHT22;395;48.132;11.608;2023-03-15T14:04:46;7.50;1.00
827;DHT22;395;48.132;11.608;2023-03-15T14:12:38;7.20;1.00
827;DHT22;395;48.132;11.608;2023-03-15T14:15:17;7.40;1.00
827;DHT22;395;48.132;11.608;2023-03-15T14:18:02;7.40;1.00
827;DHT22;395;48.132;11.608;2023-03-15T14:20:38;7.50;1.00
827;DHT22;395;48.132;11.608;2023-03-15T14:23:10;7.30;1.00
827;DHT22;395;48.132;11.608;2023-03-15T14:25:36;7.40;1.00
827;DHT22;395;48.132;11.608;2023-03-15T14:28:03;7.10;1.00
827;DHT22;395;48.132;11.608;2023-03-15T14:30:33;7.10;1.00
827;DHT22;395;48.132;11.608;2023-03-15T14:33:01;7.30;1.00
827;DHT22;395;48.132;11.608;2023-03-15T14:35:31;7.40;1.00
827;DHT22;395;48.132;11.608;2023-03-15T14:38:16;7.30;1.00
827;DHT22;395;48.132;11.608;2023-03-15T14:40:42;7.30;1.00
827;DHT22;395;48.132;11.608;2023-03-15T14:43:08;7.40;1.00
827;DHT22;395;48.132;11.608;2023-03-15T14:45:37;7.10;1.00
827;DHT22;395;48.132;11.608;2023-03-15T14:48:14;7.20;1.00
827;DHT22;395;48.132;11.608;2023-03-15T14:50:44;7.20;1.00
827;DHT22;395;48.132;11.608;2023-03-15T14:53:18;7.20;1.00
827;DHT22;395;48.132;11.608;2023-03-15T14:55:45;7.20;1.00
827;DHT22;395;48.132;11.608;2023-03-15T14:58:16;7.00;1.00
827;DHT22;395;48.132;11.608;2023-03-15T15:00:43;7.10;1.00
827;DHT22;395;48.132;11.608;2023-03-15T15:03:36;7.00;1.00
827;DHT22;395;48.132;11.608;2023-03-15T15:06:07;6.90;1.00
827;DHT22;395;48.132;11.608;2023-03-15T15:08:36;6.90;1.00
827;DHT22;395;48.132;11.608;2023-03-15T15:11:04;7.00;1.00
827;DHT22;395;48.132;11.608;2023-03-15T15:13:33;7.20;1.00
827;DHT22;395;48.132;11.608;2023-03-15T15:15:59;7.10;1.00
827;DHT22;395;48.132;11.608;2023-03-15T15:18:28;7.10;1.00
827;DHT22;395;48.132;11.608;2023-03-15T15:20:54;7.00;1.00
827;DHT22;395;48.132;11.608;2023-03-15T15:23:29;7.10;1.00
827;DHT22;395;48.132;11.608;2023-03-15T15:26:04;7.00;1.00
827;DHT22;395;48.132;11.608;2023-03-15T15:28:31;6.90;1.00
827;DHT22;395;48.132;11.608;2023-03-15T15:30:58;7.00;1.00
827;DHT22;395;48.132;11.608;2023-03-15T15:33:23;7.00;1.00
827;DHT22;395;48.132;11.608;2023-03-15T15:35:52;6.80;1.00
827;DHT22;395;48.132;11.608;2023-03-15T15:38:19;6.90;1.00
827;DHT22;395;48.132;11.608;2023-03-15T15:40:44;7.00;1.00
827;DHT22;395;48.132;11.608;2023-03-15T15:43:10;7.00;1.00
827;DHT22;395;48.132;11.608;2023-03-15T15:45:37;7.10;1.00
827;DHT22;395;48.132;11.608;2023-03-15T15:48:03;7.00;1.00
827;DHT22;395;48.132;11.608;2023-03-15T15:50:32;7.10;1.00
827;DHT22;395;48.132;11.608;2023-03-15T15:53:02;7.10;1.00
827;DHT22;395;48.132;11.608;2023-03-15T15:55:34;7.10;1.00
827;DHT22;395;48.132;11.608;2023-03-15T15:58:01;7.10;1.00
827;DHT22;395;48.132;11.608;2023-03-15T16:00:28;7.20;1.00
827;DHT22;395;48.132;11.608;2023-03-15T16:02:54;7.00;1.00
827;DHT22;395;48.132;11.608;2023-03-15T16:05:23;7.00;1.00
827;DHT22;395;48.132;11.608;2023-03-15T16:07:53;7.00;1.00
827;DHT22;395;48.132;11.608;2023-03-15T16:10:25;6.90;1.00
827;DHT22;395;48.132;11.608;2023-03-15T16:12:52;6.70;1.00
827;DHT22;395;48.132;11.608;2023-03-15T16:15:19;6.70;1.00
827;DHT22;395;48.132;11.608;2023-03-15T16:17:45;6.50;1.00
827;DHT22;395;48.132;11.608;2023-03-15T16:20:12;6.40;1.00
827;DHT22;395;48.132;11.608;2023-03-15T16:22:40;6.10;1.00
827;DHT22;395;48.132;11.608;2023-03-15T16:25:19;5.80;1.00
827;DHT22;395;48.132;11.608;2023-03-15T16:27:49;5.70;1.00
827;DHT22;395;48.132;11.608;2023-03-15T16:30:26;5.70;1.00
827;DHT22;395;48.132;11.608;2023-03-15T16:32:53;6.00;1.00
827;DHT22;395;48.132;11.608;2023-03-15T16:35:20;5.80;1.00
827;DHT22;395;48.132;11.608;2023-03-15T16:37:47;5.90;1.00
827;DHT22;395;48.132;11.608;2023-03-15T16:40:28;5.70;1.00
827;DHT22;395;48.132;11.608;2023-03-15T16:42:55;5.80;1.00
827;DHT22;395;48.132;11.608;2023-03-15T16:45:22;5.80;1.00
827;DHT22;395;48.132;11.608;2023-03-15T16:47:47;5.50;1.00
827;DHT22;395;48.132;11.608;2023-03-15T16:50:13;5.80;1.00
827;DHT22;395;48.132;11.608;2023-03-15T16:52:40;6.00;1.00
827;DHT22;395;48.132;11.608;2023-03-15T16:55:09;6.10;1.00
827;DHT22;395;48.132;11.608;2023-03-15T16:57:37;6.30;1.00
827;DHT22;395;48.132;11.608;2023-03-15T17:00:04;6.40;1.00
827;DHT22;395;48.132;11.608;2023-03-15T17:02:37;6.20;1.00
827;DHT22;395;48.132;11.608;2023-03-15T17:05:03;6.20;1.00
827;DHT22;395;48.132;11.608;2023-03-15T17:07:32;6.20;1.00
827;DHT22;395;48.132;11.608;2023-03-15T17:10:05;6.40;1.00
827;DHT22;395;48.132;11.608;2023-03-15T17:12:31;6.40;1.00
827;DHT22;395;48.132;11.608;2023-03-15T17:14:58;6.50;1.00
827;DHT22;395;48.132;11.608;2023-03-15T17:17:26;6.60;1.00
827;DHT22;395;48.132;11.608;2023-03-15T17:19:52;6.60;1.00
827;DHT22;395;48.132;11.608;2023-03-15T17:22:18;6.60;1.00
827;DHT22;395;48.132;11.608;2023-03-15T17:24:45;6.60;1.00
827;DHT22;395;48.132;11.608;2023-03-15T17:27:29;6.70;1.00
827;DHT22;395;48.132;11.608;2023-03-15T17:29:56;6.80;1.00
827;DHT22;395;48.132;11.608;2023-03-15T17:32:22;6.70;1.00
827;DHT22;395;48.132;11.608;2023-03-15T17:34:47;6.70;1.00
827;DHT22;395;48.132;11.608;2023-03-15T17:37:14;6.80;1.00
827;DHT22;395;48.132;11.608;2023-03-15T17:39:42;6.80;1.00
827;DHT22;395;48.132;11.608;2023-03-15T17:42:11;6.60;1.00
827;DHT22;395;48.132;11.608;2023-03-15T17:44:38;6.70;1.00
827;DHT22;395;48.132;11.608;2023-03-15T17:47:03;6.70;1.00
827;DHT22;395;48.132;11.608;2023-03-15T17:49:29;6.70;1.00
827;DHT22;395;48.132;11.608;2023-03-15T17:51:55;6.80;1.00
827;DHT22;395;48.132;11.608;2023-03-15T17:54:22;6.60;1.00
827;DHT22;395;48.132;11.608;2023-03-15T17:56:49;6.60;1.00
827;DHT22;395;48.132;11.608;2023-03-15T17:59:16;6.40;1.00
827;DHT22;395;48.132;11.608;2023-03-15T18:01:42;6.30;1.00
827;DHT22;395;48.132;11.608;2023-03-15T18:04:14;6.30;1.00
827;DHT22;395;48.132;11.608;2023-03-15T18:06:40;6.40;1.00
827;DHT22;395;48.132;11.608;2023-03-15T18:09:05;6.30;1.00
827;DHT22;395;48.132;11.608;2023-03-15T18:11:32;6.40;1.00
827;DHT22;395;48.132;11.608;2023-03-15T18:14:03;6.30;1.00
827;DHT22;395;48.132;11.608;2023-03-15T18:16:30;6.10;1.00
827;DHT22;395;48.132;11.608;2023-03-15T18:18:56;6.30;1.00